Aquadale, North Carolina
Current Conditions -  °F | °C
As of 1:15 AM on Saturday 01 Nov 2014 (Local Time) from KVUJ Reporting Station
Light Rain Light Rain  
Wind Chill: 47°   Ceiling: 4700
Heat Index: 47°   Visibility: 10mi
Dew Point: 47°   Wind: 0mph
Humidity: 100%   Direction: NA
Pressure: 29.79"   Gusts: NA
Location:  35.2152°N, 80.1663°W
Report Text: KVUJ 010515Z AUTO 00000KT 10SM -RA SCT007 BKN047 OVC060 08/08 A2979 RMK AO2 P0002 T00810081
Loading
Personal Weather Stations






























Interactive Weather Map
Tropical Storm Tracking
New forecast layout! Learn more

10-Day Weather Forecast

Advertisements
Track Severe Weather on mobile